GMTN/TTU METAR and TAF weather

Enter ICAO airport designator
Station Type Date Time Source
GMTN METAR 2019/06/20 07:00 UTC NOAA

GMTN 200700Z 26010KT 230V310 9999 FEW023 21/13 Q1015 NOSIG


Station Type Date Time Source
GMTN Decoded METAR 2019/06/20 07:00 UTC NOAA

Tetuan / Sania Ramel, Morocco (GMTN) 35-35N 005-20W 10M
Jun 20, 2019 - 03:00 AM EDT / 2019.06.20 0700 UTC
Wind: from the W (260 degrees) at 12 MPH (10 KT) (direction variable):0
Visibility: greater than 7 mile(s):0
Sky conditions: mostly clear
Temperature: 69 F (21 C)
Dew Point: 55 F (13 C)
Relative Humidity: 60%
Pressure (altimeter): 29.97 in. Hg (1015 hPa)
ob: GMTN 200700Z 26010KT 230V310 9999 FEW023 21/13 Q1015 NOSIG
cycle: 7

Station Type Date Time Source
GMTN TAF UTC NOAA

Error!

Example: see airport list